Waukau, Wisconsin
Current Conditions -  °F | °C
As of 6:53 AM on Saturday 22 Nov 2014 (Local Time) from KOSH Reporting Station
Haze Haze  
Wind Chill: 25°   Ceiling: 600
Heat Index: 33°   Visibility: 4mi
Dew Point: 30°   Wind: 9mph
Humidity: 89%   Direction: 220°SW
Pressure: 29.9"   Gusts: NA
Location:  43.99°N, 88.77°W
Report Text: KOSH 221253Z 22008KT 4SM BR OVC006 01/M01 A2990 RMK AO2 SLP139 T00061011
Loading
Personal Weather Stations






























Interactive Weather Map New forecast layout! Learn more

10-Day Weather Forecast

Advertisements
Track Severe Weather on mobile